X  Sluiten METAR luchtvaart weer gegevens      EHLE Lelystad Airport
Temperatuur
43°F Temperatuur
36°F Dauwpunt
76% Vochtigheid



Wind
13 MPH
21 KM/U
6 M/S
11 KTS



300°
WNW
Huidig weer

Wat bewolking Wat bewolking
Luchtdruk 1008.81 (hPa) - 29.79 (inHg)
Zicht 6 (mijl) - 9.7 (km)
Vliegveld
Vliegveld code EHLE

Locatie : Lelystad Airport
Afstand: 25 (mi)

Metar:
EHLE 240455Z AUTO 30011KT 260V340 9999 FEW015CB SCT031 06/02 Q1009

Tijd: 24-04-2024 06:55 CEST